Time;durP1;ratioP1;P1;durP2;ratioP2;P2;SDS_P1;SDS_P2;PMS_P1;PMS_P2;Temp;Humidity;BMP_temperature;BMP_pressure;BME280_temperature;BME280_humidity;BME280_pressure;Samples;Min_cycle;Max_cycle;Signal;HPM_P1;HPM_P2
2024/01/29 00:02:23;;;;;;;11.27;5.22;;;;;;;4.08;100.00;99196.63;5077347;28;20028;-79
2024/01/29 00:04:48;;;;;;;10.05;5.13;;;;;;;4.07;100.00;99186.91;5091364;28;20384;-80
2024/01/29 00:07:14;;;;;;;10.57;5.00;;;;;;;4.17;100.00;99185.94;5064197;28;20407;-80
2024/01/29 00:09:41;;;;;;;9.52;5.10;;;;;;;4.27;100.00;99214.09;5071151;28;20074;-80
2024/01/29 00:12:07;;;;;;;10.20;5.38;;;;;;;4.22;100.00;99203.53;5061117;28;20631;-80
2024/01/29 00:14:32;;;;;;;11.32;5.38;;;;;;;4.24;100.00;99207.06;5074527;28;20031;-79
2024/01/29 00:16:58;;;;;;;10.00;5.25;;;;;;;4.28;100.00;99194.63;5057581;28;20027;-80
2024/01/29 00:19:24;;;;;;;17.73;5.05;;;;;;;4.27;100.00;99200.84;5068561;28;20488;-79
2024/01/29 00:21:50;;;;;;;9.98;4.18;;;;;;;4.33;100.00;99219.31;5061971;28;20026;-80
2024/01/29 00:24:16;;;;;;;6.75;4.35;;;;;;;4.36;100.00;99237.84;5058747;28;20503;-80
2024/01/29 00:26:41;;;;;;;7.05;4.10;;;;;;;4.15;100.00;99219.53;5060522;28;20035;-80
2024/01/29 00:29:08;;;;;;;8.48;4.45;;;;;;;4.16;100.00;99223.91;5060368;28;20044;-80
2024/01/29 00:31:36;;;;;;;8.32;4.50;;;;;;;4.12;100.00;99216.91;5065720;28;20044;-79
2024/01/29 00:34:01;;;;;;;7.70;4.72;;;;;;;4.07;100.00;99219.56;5065733;28;20478;-80
2024/01/29 00:36:28;;;;;;;10.18;4.82;;;;;;;4.09;100.00;99233.66;5069592;28;20481;-78
2024/01/29 00:38:53;;;;;;;8.40;4.63;;;;;;;4.02;100.00;99229.34;5076899;28;20039;-78
2024/01/29 00:41:19;;;;;;;13.60;4.43;;;;;;;4.10;100.00;99239.84;5083365;28;20031;-79
2024/01/29 00:43:45;;;;;;;7.47;4.45;;;;;;;4.21;100.00;99253.88;5082569;28;20027;-80
2024/01/29 00:46:10;;;;;;;10.75;5.22;;;;;;;3.93;100.00;99220.59;5058267;28;20054;-80
2024/01/29 00:48:36;;;;;;;10.50;5.18;;;;;;;4.08;100.00;99246.94;5060200;28;20419;-79
2024/01/29 00:51:02;;;;;;;16.23;5.60;;;;;;;4.24;100.00;99260.03;5077854;28;20472;-80
2024/01/29 00:53:28;;;;;;;11.13;5.45;;;;;;;4.27;100.00;99260.00;5068082;28;20039;-80
2024/01/29 00:55:53;;;;;;;11.75;4.68;;;;;;;4.34;100.00;99263.44;5075155;28;20040;-81
2024/01/29 00:58:20;;;;;;;9.50;4.82;;;;;;;4.28;100.00;99261.75;5073810;28;20081;-81
2024/01/29 01:00:47;;;;;;;6.65;4.35;;;;;;;4.17;100.00;99265.38;5065398;28;20023;-81
2024/01/29 01:03:13;;;;;;;9.63;4.68;;;;;;;3.77;100.00;99218.09;5062279;28;20032;-80
2024/01/29 01:05:40;;;;;;;13.85;4.55;;;;;;;3.94;100.00;99256.78;5071125;28;20081;-80
2024/01/29 01:08:06;;;;;;;10.70;5.20;;;;;;;3.82;100.00;99260.38;5084064;28;20051;-79
2024/01/29 01:10:32;;;;;;;12.80;5.72;;;;;;;3.76;100.00;99271.00;5063279;28;20456;-80
2024/01/29 01:12:57;;;;;;;14.25;5.75;;;;;;;3.68;100.00;99276.38;5061375;28;20491;-80
2024/01/29 01:15:23;;;;;;;11.30;6.03;;;;;;;3.55;100.00;99266.75;5053273;28;20047;-80
2024/01/29 01:17:49;;;;;;;11.93;5.68;;;;;;;3.34;100.00;99244.84;5077413;28;20028;-80
2024/01/29 01:20:14;;;;;;;17.98;6.28;;;;;;;3.33;100.00;99243.06;5081638;28;20128;-79
2024/01/29 01:22:40;;;;;;;12.48;5.80;;;;;;;3.50;100.00;99268.56;5085625;28;20073;-80
2024/01/29 01:25:06;;;;;;;10.63;5.63;;;;;;;3.51;100.00;99248.25;5063346;28;20041;-81
2024/01/29 01:27:32;;;;;;;14.73;6.47;;;;;;;3.74;100.00;99262.22;5057132;28;20534;-80
2024/01/29 01:29:58;;;;;;;13.40;6.30;;;;;;;3.68;100.00;99252.56;5061446;28;20479;-80
2024/01/29 01:32:24;;;;;;;18.13;8.85;;;;;;;3.58;100.00;99249.97;5068332;28;20127;-81
2024/01/29 01:34:50;;;;;;;17.05;8.23;;;;;;;3.51;100.00;99259.72;5060776;28;20081;-81
2024/01/29 01:37:15;;;;;;;15.50;7.25;;;;;;;3.35;100.00;99217.53;5071162;28;20086;-82
2024/01/29 01:39:41;;;;;;;12.40;6.82;;;;;;;3.55;100.00;99253.53;5060151;28;20040;-81
2024/01/29 01:42:07;;;;;;;14.52;7.05;;;;;;;3.56;100.00;99242.06;5065260;28;20023;-81
2024/01/29 01:44:32;;;;;;;13.90;7.28;;;;;;;3.65;100.00;99267.56;5061216;28;20097;-81
2024/01/29 01:46:59;;;;;;;14.98;7.38;;;;;;;3.57;100.00;99257.03;5073806;28;20495;-82
2024/01/29 01:49:25;;;;;;;18.75;8.77;;;;;;;3.51;100.00;99253.53;5057887;28;20028;-81
2024/01/29 01:51:51;;;;;;;16.75;8.18;;;;;;;3.46;100.00;99248.28;5070121;28;20059;-81
2024/01/29 01:54:16;;;;;;;18.67;7.80;;;;;;;3.38;100.00;99236.91;5067798;28;20039;-82
2024/01/29 01:56:42;;;;;;;14.60;7.38;;;;;;;3.25;100.00;99227.28;5059750;28;20021;-84
2024/01/29 01:59:10;;;;;;;22.90;8.20;;;;;;;3.40;100.00;99240.41;5053535;28;20024;-81
2024/01/29 02:01:36;;;;;;;13.32;7.20;;;;;;;3.46;100.00;99248.28;5070206;28;20479;-80
2024/01/29 02:04:01;;;;;;;16.42;7.45;;;;;;;3.53;100.00;99241.19;5073297;28;20123;-82
2024/01/29 02:06:28;;;;;;;16.92;7.30;;;;;;;3.61;100.00;99250.84;5066902;28;20037;-83
2024/01/29 02:08:54;;;;;;;18.45;7.03;;;;;;;3.60;100.00;99227.03;5053855;28;20126;-81
2024/01/29 02:11:19;;;;;;;17.67;7.15;;;;;;;3.58;100.00;99237.63;5080457;28;20180;-84
2024/01/29 02:13:45;;;;;;;17.10;7.18;;;;;;;3.66;100.00;99241.09;5064073;28;20029;-82
2024/01/29 02:16:11;;;;;;;14.38;7.47;;;;;;;3.73;100.00;99253.38;5062175;28;20032;-83
2024/01/29 02:18:36;;;;;;;14.05;7.25;;;;;;;3.76;100.00;99256.00;5072982;28;20035;-81
2024/01/29 02:21:02;;;;;;;17.52;7.30;;;;;;;3.79;100.00;99253.34;5057589;28;20539;-82
2024/01/29 02:23:28;;;;;;;17.98;7.90;;;;;;;3.89;100.00;99258.56;5057407;28;20035;-82
2024/01/29 02:25:54;;;;;;;18.55;7.68;;;;;;;3.83;100.00;99257.72;5063681;28;20130;-82
2024/01/29 02:28:19;;;;;;;17.73;8.52;;;;;;;3.82;100.00;99258.59;5063161;28;20032;-82
2024/01/29 02:30:45;;;;;;;12.90;6.95;;;;;;;3.80;100.00;99247.16;5057355;28;20051;-82
2024/01/29 02:33:10;;;;;;;16.45;7.60;;;;;;;3.71;100.00;99241.06;5061671;28;20024;-82
2024/01/29 02:35:37;;;;;;;15.60;6.45;;;;;;;3.58;100.00;99249.97;5057736;28;20496;-82
2024/01/29 02:38:02;;;;;;;13.15;6.68;;;;;;;3.60;100.00;99254.34;5067729;28;20056;-81
2024/01/29 02:40:28;;;;;;;16.42;7.97;;;;;;;3.66;100.00;99253.47;5068530;28;20031;-82
2024/01/29 02:42:54;;;;;;;16.75;6.60;;;;;;;3.71;100.00;99260.47;5065258;28;20024;-81
2024/01/29 02:45:19;;;;;;;15.32;6.68;;;;;;;3.62;100.00;99252.59;5063787;28;20020;-81
2024/01/29 02:47:45;;;;;;;17.48;8.10;;;;;;;3.70;100.00;99256.06;5081993;28;20028;-81
2024/01/29 02:50:10;;;;;;;15.32;7.20;;;;;;;3.64;100.00;99261.41;5065327;28;20122;-81
2024/01/29 02:52:36;;;;;;;19.05;7.97;;;;;;;3.70;100.00;99265.75;5089855;28;20024;-81
2024/01/29 02:55:02;;;;;;;13.88;7.13;;;;;;;3.56;100.00;99257.94;5066072;28;20035;-82
2024/01/29 02:57:28;;;;;;;11.80;6.30;;;;;;;3.50;100.00;99260.63;5056673;28;20042;-82
2024/01/29 02:59:54;;;;;;;14.60;6.50;;;;;;;3.46;100.00;99258.88;5060491;28;20507;-82
2024/01/29 03:02:20;;;;;;;12.75;6.38;;;;;;;3.45;100.00;99270.31;5064648;28;20028;-83
2024/01/29 03:04:45;;;;;;;17.80;7.30;;;;;;;3.51;100.00;99265.00;5060286;28;20046;-82
2024/01/29 03:07:11;;;;;;;13.80;7.22;;;;;;;3.54;100.00;99280.84;5077194;28;20029;-81
2024/01/29 03:09:36;;;;;;;19.25;7.18;;;;;;;3.53;100.00;99268.53;5092092;28;20024;-81
2024/01/29 03:12:03;;;;;;;14.63;7.25;;;;;;;3.45;100.00;99249.16;5072633;28;20399;-81
2024/01/29 03:14:28;;;;;;;13.50;6.78;;;;;;;3.37;100.00;99250.09;5080677;28;20036;-81
2024/01/29 03:16:54;;;;;;;15.18;7.65;;;;;;;3.38;100.00;99247.47;5089826;28;20085;-81
2024/01/29 03:19:20;;;;;;;17.63;7.82;;;;;;;3.46;100.00;99265.91;5068329;28;20395;-81
2024/01/29 03:21:46;;;;;;;18.48;8.25;;;;;;;3.36;100.00;99254.50;5060152;28;20443;-82
2024/01/29 03:24:12;;;;;;;18.98;7.47;;;;;;;3.35;100.00;99250.13;5066690;28;20042;-81
2024/01/29 03:26:37;;;;;;;18.85;8.05;;;;;;;3.48;100.00;99269.41;5056974;28;20041;-80
2024/01/29 03:29:03;;;;;;;13.95;7.45;;;;;;;3.46;100.00;99258.88;5065464;28;20485;-82
2024/01/29 03:31:29;;;;;;;13.57;6.85;;;;;;;3.40;100.00;99274.78;5066793;28;20062;-82
2024/01/29 03:33:54;;;;;;;13.77;5.72;;;;;;;3.29;100.00;99268.69;5072094;28;20028;-81
2024/01/29 03:36:20;;;;;;;10.07;5.13;;;;;;;3.12;100.00;99265.22;5059484;28;20028;-83
2024/01/29 03:38:46;;;;;;;8.60;5.13;;;;;;;3.05;100.00;99263.50;5058563;28;20054;-81
2024/01/29 03:41:12;;;;;;;14.07;5.00;;;;;;;3.04;100.00;99277.63;5067603;28;20112;-83
2024/01/29 03:43:38;;;;;;;12.93;5.75;;;;;;;2.95;100.00;99277.66;5064237;28;20089;-82
2024/01/29 03:46:04;;;;;;;11.98;5.65;;;;;;;2.80;100.00;99256.56;5061180;28;20465;-83
2024/01/29 03:48:29;;;;;;;9.98;4.47;;;;;;;2.83;100.00;99267.13;5057994;28;20568;-82
2024/01/29 03:50:55;;;;;;;8.25;5.13;;;;;;;2.80;100.00;99267.13;5094398;28;20020;-82
2024/01/29 03:53:21;;;;;;;14.10;5.28;;;;;;;2.78;100.00;99247.75;5060205;28;20028;-81
2024/01/29 03:55:47;;;;;;;7.97;4.15;;;;;;;2.92;100.00;99251.25;5062454;28;20068;-81
2024/01/29 03:58:13;;;;;;;11.20;5.57;;;;;;;2.99;100.00;99250.31;5057214;28;20028;-81
2024/01/29 04:00:39;;;;;;;8.75;5.10;;;;;;;3.05;100.00;99248.50;5063739;28;20038;-82
2024/01/29 04:03:05;;;;;;;12.50;5.80;;;;;;;3.10;100.00;99253.78;5063068;28;20020;-81
2024/01/29 04:05:31;;;;;;;9.50;4.75;;;;;;;2.98;100.00;99254.75;5064490;28;20035;-82
2024/01/29 04:07:57;;;;;;;10.38;4.70;;;;;;;2.98;100.00;99257.38;5064086;28;20021;-81
2024/01/29 04:10:22;;;;;;;12.68;5.78;;;;;;;3.02;100.00;99258.22;5069065;28;20076;-81
2024/01/29 04:12:48;;;;;;;12.48;5.53;;;;;;;3.07;100.00;99267.91;5075704;28;20494;-82
2024/01/29 04:15:14;;;;;;;9.75;5.40;;;;;;;3.04;100.00;99267.03;5075510;28;20039;-81
2024/01/29 04:17:40;;;;;;;11.65;4.63;;;;;;;3.03;100.00;99263.50;5066063;28;20032;-82
2024/01/29 04:20:06;;;;;;;8.27;4.38;;;;;;;3.06;100.00;99270.53;5061027;28;20030;-82
2024/01/29 04:22:32;;;;;;;11.73;5.82;;;;;;;3.04;100.00;99267.03;5074857;28;20023;-81
2024/01/29 04:24:58;;;;;;;12.63;5.70;;;;;;;2.99;100.00;99269.69;5071712;28;20511;-81
2024/01/29 04:27:24;;;;;;;12.23;6.15;;;;;;;2.95;100.00;99267.09;5069958;28;20028;-83
2024/01/29 04:29:50;;;;;;;11.73;5.47;;;;;;;2.86;100.00;99270.59;5076349;28;20074;-81
2024/01/29 04:32:15;;;;;;;13.07;5.82;;;;;;;2.85;100.00;99281.19;5085773;28;20400;-86
2024/01/29 04:34:41;;;;;;;13.95;5.85;;;;;;;2.87;100.00;99282.94;5055338;28;20036;-74
2024/01/29 04:37:06;;;;;;;11.57;5.80;;;;;;;2.90;100.00;99297.91;5072763;28;20480;-78
2024/01/29 04:39:32;;;;;;;18.77;8.02;;;;;;;2.84;100.00;99290.88;5064370;28;20032;-77
2024/01/29 04:41:57;;;;;;;18.98;9.65;;;;;;;2.82;100.00;99297.06;5086483;28;20031;-78
2024/01/29 04:44:24;;;;;;;19.10;7.93;;;;;;;2.86;100.00;99293.53;5081424;28;20107;-78
2024/01/29 04:46:50;;;;;;;17.65;7.20;;;;;;;2.97;100.00;99313.75;5090995;28;20034;-78
2024/01/29 04:49:16;;;;;;;38.83;16.30;;;;;;;2.98;100.00;99306.72;5060848;28;20028;-76
2024/01/29 04:51:42;;;;;;;28.33;13.25;;;;;;;3.00;100.00;99297.88;5092106;28;20055;-76
2024/01/29 04:54:07;;;;;;;13.93;6.82;;;;;;;3.00;100.00;99308.47;5078344;28;20105;-83
2024/01/29 04:56:33;;;;;;;16.35;8.35;;;;;;;2.98;100.00;99306.72;5085595;28;20035;-81
2024/01/29 04:58:58;;;;;;;14.25;7.15;;;;;;;2.94;100.00;99303.19;5080387;28;20047;-79
2024/01/29 05:01:24;;;;;;;10.18;4.90;;;;;;;2.94;100.00;99308.47;5070253;28;20032;-80
2024/01/29 05:03:51;;;;;;;12.00;5.13;;;;;;;2.96;100.00;99317.28;5074202;28;20024;-79
2024/01/29 05:06:17;;;;;;;13.38;6.90;;;;;;;3.00;100.00;99313.75;5065164;28;20115;-76
2024/01/29 05:08:44;;;;;;;27.33;10.65;;;;;;;2.97;100.00;99300.53;5080776;28;20067;-75
2024/01/29 05:11:09;;;;;;;9.85;5.35;;;;;;;3.02;100.00;99314.59;5053441;28;20550;-76
2024/01/29 05:13:35;;;;;;;13.05;7.15;;;;;;;3.02;100.00;99314.59;5070021;28;20107;-75
2024/01/29 05:16:00;;;;;;;15.25;6.80;;;;;;;3.01;100.00;99322.56;5073244;28;20033;-75
2024/01/29 05:18:26;;;;;;;26.85;11.38;;;;;;;2.96;100.00;99317.28;5068545;28;20119;-81
2024/01/29 05:20:52;;;;;;;14.27;6.85;;;;;;;2.98;100.00;99325.22;5051793;28;20126;-83
2024/01/29 05:23:18;;;;;;;38.35;18.13;;;;;;;3.03;100.00;99328.72;5065777;28;20108;-83
2024/01/29 05:25:44;;;;;;;94.82;43.03;;;;;;;3.01;100.00;99325.19;5058531;28;20082;-82
2024/01/29 05:28:10;;;;;;;265.77;134.00;;;;;;;3.12;100.00;99333.97;5063271;28;20048;-80
2024/01/29 05:30:36;;;;;;;24.70;12.77;;;;;;;3.05;100.00;99329.56;5064973;28;20034;-80
2024/01/29 05:33:02;;;;;;;26.40;11.13;;;;;;;3.07;100.00;99335.75;5080844;28;20024;-80
2024/01/29 05:35:27;;;;;;;19.17;8.00;;;;;;;3.06;100.00;99340.16;5052700;28;20036;-82
2024/01/29 05:37:53;;;;;;;19.70;9.35;;;;;;;3.07;100.00;99348.97;5069631;28;20032;-82
2024/01/29 05:40:19;;;;;;;34.40;14.95;;;;;;;3.05;100.00;99342.78;5059368;28;20039;-81
2024/01/29 05:42:51;;;;;;;24.80;10.15;;;;;;;3.05;100.00;99348.06;5075755;28;20487;-82
2024/01/29 05:45:17;;;;;;;18.45;9.60;;;;;;;2.98;100.00;99351.63;5075788;28;20104;-81
2024/01/29 05:47:43;;;;;;;18.92;8.88;;;;;;;2.96;100.00;99354.28;5060623;28;20399;-82
2024/01/29 05:50:09;;;;;;;16.92;8.23;;;;;;;2.96;100.00;99354.28;5055607;28;20075;-82
2024/01/29 05:52:35;;;;;;;18.00;8.52;;;;;;;3.01;100.00;99356.91;5061072;28;20035;-81
2024/01/29 05:55:01;;;;;;;20.25;9.48;;;;;;;2.99;100.00;99350.72;5064721;28;20039;-81
2024/01/29 05:57:30;;;;;;;18.70;9.15;;;;;;;2.98;100.00;99360.47;5065498;28;20029;-82
2024/01/29 05:59:55;;;;;;;19.35;10.07;;;;;;;2.94;100.00;99349.88;5052661;28;20021;-82
2024/01/29 06:02:21;;;;;;;21.05;9.13;;;;;;;3.04;100.00;99364.84;5061150;28;20542;-81
2024/01/29 06:04:46;;;;;;;24.63;11.10;;;;;;;3.03;100.00;99363.94;5052604;28;20028;-82
2024/01/29 06:07:12;;;;;;;55.35;23.27;;;;;;;3.04;100.00;99352.50;5053444;28;20032;-80
2024/01/29 06:09:38;;;;;;;71.22;28.77;;;;;;;3.14;100.00;99359.50;5064500;28;20097;-81
2024/01/29 06:12:03;;;;;;;109.63;37.45;;;;;;;3.10;100.00;99351.59;5072108;28;20063;-82
2024/01/29 06:14:30;;;;;;;69.88;26.40;;;;;;;3.08;100.00;99345.41;5072432;28;20048;-83
2024/01/29 06:16:56;;;;;;;87.78;30.38;;;;;;;3.05;100.00;99350.72;5089330;28;20027;-83
2024/01/29 06:19:23;;;;;;;35.00;14.68;;;;;;;3.06;100.00;99360.41;5075142;28;20122;-80
2024/01/29 06:21:49;;;;;;;33.63;13.15;;;;;;;3.06;100.00;99363.94;5067416;28;20032;-81
2024/01/29 06:24:14;;;;;;;26.27;11.63;;;;;;;3.07;100.00;99360.44;5064842;28;20432;-82
2024/01/29 06:26:41;;;;;;;19.23;8.43;;;;;;;3.11;100.00;99371.84;5074897;28;20035;-81
2024/01/29 06:29:06;;;;;;;12.80;5.68;;;;;;;3.06;100.00;99363.94;5086422;28;20102;-80
2024/01/29 06:31:32;;;;;;;13.52;5.13;;;;;;;3.01;100.00;99367.50;5076296;28;20428;-81
2024/01/29 06:33:57;;;;;;;11.68;6.90;;;;;;;2.97;100.00;99360.44;5065754;28;20024;-82
2024/01/29 06:36:23;;;;;;;11.35;6.18;;;;;;;3.16;100.00;99376.25;5072978;28;20111;-82
2024/01/29 06:38:49;;;;;;;20.60;7.90;;;;;;;3.29;100.00;99379.75;5084483;28;20035;-82
2024/01/29 06:41:19;;;;;;;14.50;7.72;;;;;;;3.28;100.00;99365.63;5087494;28;20457;-81
2024/01/29 06:43:45;;;;;;;15.35;7.60;;;;;;;3.36;100.00;99359.41;5081036;28;20032;-80
2024/01/29 06:46:10;;;;;;;39.05;17.38;;;;;;;3.61;100.00;99372.53;5069150;28;20487;-81
2024/01/29 06:48:37;;;;;;;35.03;16.30;;;;;;;3.54;100.00;99370.78;5079511;28;20035;-82
2024/01/29 06:51:03;;;;;;;23.63;12.10;;;;;;;3.70;100.00;99364.53;5074578;28;20040;-82
2024/01/29 06:53:29;;;;;;;18.40;8.98;;;;;;;3.91;100.00;99360.03;5070217;28;20051;-81
2024/01/29 06:55:56;;;;;;;16.17;6.80;;;;;;;4.03;100.00;99349.34;5072188;28;20483;-82
2024/01/29 06:58:21;;;;;;;78.80;25.42;;;;;;;4.24;100.00;99355.38;5064648;28;20510;-82
2024/01/29 07:00:47;;;;;;;56.08;18.02;;;;;;;4.42;100.00;99358.75;5071505;28;20116;-82
2024/01/29 07:03:12;;;;;;;81.03;27.45;;;;;;;4.65;100.00;99339.09;5087987;28;20404;-80
2024/01/29 07:05:38;;;;;;;40.95;16.73;;;;;;;5.57;100.00;99347.75;5063635;28;20052;-80
2024/01/29 07:08:04;;;;;;;27.13;12.55;;;;;;;5.72;100.00;99347.56;5065099;28;20128;-81
2024/01/29 07:10:30;;;;;;;24.25;11.60;;;;;;;5.61;100.00;99349.50;5087497;28;20539;-81
2024/01/29 07:12:55;;;;;;;16.73;7.63;;;;;;;5.35;100.00;99331.22;5065149;28;20037;-82
2024/01/29 07:15:21;;;;;;;11.45;7.03;;;;;;;5.18;100.00;99357.09;5063910;28;20166;-82
2024/01/29 07:17:47;;;;;;;13.30;5.78;;;;;;;4.75;100.00;99353.16;5055290;28;20024;-82
2024/01/29 07:20:13;;;;;;;10.50;6.55;;;;;;;4.74;100.00;99362.84;5058272;28;20518;-81
2024/01/29 07:22:39;;;;;;;88.60;35.22;;;;;;;4.79;100.00;99365.47;5076195;28;20111;-81
2024/01/29 07:25:05;;;;;;;17.50;8.63;;;;;;;4.76;100.00;99365.50;5055150;28;20052;-82
2024/01/29 07:27:31;;;;;;;17.52;7.75;;;;;;;4.85;100.00;99361.00;5078395;28;20032;-82
2024/01/29 07:29:57;;;;;;;12.15;6.05;;;;;;;4.59;100.00;99364.78;5075276;28;20519;-78
2024/01/29 07:32:22;;;;;;;11.98;6.57;;;;;;;4.45;100.00;99364.91;5092097;28;20025;-82
2024/01/29 07:34:48;;;;;;;20.70;6.43;;;;;;;4.41;100.00;99371.13;5076738;28;20033;-83
2024/01/29 07:37:13;;;;;;;20.20;7.32;;;;;;;4.53;100.00;99368.38;5089264;28;20093;-81
2024/01/29 07:39:39;;;;;;;11.38;4.53;;;;;;;4.58;100.00;99384.25;5092118;28;20131;-82
2024/01/29 07:42:05;;;;;;;7.65;4.22;;;;;;;4.59;100.00;99384.22;5074172;28;20032;-82
2024/01/29 07:44:33;;;;;;;9.05;5.00;;;;;;;4.68;100.00;99385.91;5070484;28;20028;-81
2024/01/29 07:46:59;;;;;;;7.25;4.20;;;;;;;4.50;100.00;99384.28;5061703;28;20085;-86
2024/01/29 07:49:27;;;;;;;11.38;4.78;;;;;;;4.23;100.00;99364.19;5082275;28;20480;-83
2024/01/29 07:52:02;;;;;;;12.98;4.72;;;;;;;4.31;100.00;99390.63;5091762;28;20026;-81
2024/01/29 07:54:28;;;;;;;11.77;5.65;;;;;;;4.40;100.00;99390.53;5064218;28;20032;-80
2024/01/29 07:56:54;;;;;;;16.33;8.82;;;;;;;4.62;100.00;99384.19;5068973;28;20393;-82
2024/01/29 07:59:19;;;;;;;13.90;6.65;;;;;;;4.57;100.00;99375.41;5055734;28;20035;-81
2024/01/29 08:01:45;;;;;;;8.57;5.05;;;;;;;4.68;100.00;99383.25;5067996;28;20089;-81
2024/01/29 08:04:11;;;;;;;12.10;5.35;;;;;;;4.96;100.00;99394.47;5073579;28;20032;-80
2024/01/29 08:06:37;;;;;;;26.10;7.72;;;;;;;5.02;100.00;99386.44;5086209;28;20476;-80
2024/01/29 08:09:05;;;;;;;20.25;7.35;;;;;;;5.03;100.00;99397.06;5054610;28;20093;-80
2024/01/29 08:11:32;;;;;;;15.05;6.88;;;;;;;4.96;100.00;99398.00;5054677;28;20020;-80
2024/01/29 08:13:58;;;;;;;19.30;8.05;;;;;;;4.95;100.00;99395.38;5061737;28;20439;-80
2024/01/29 08:16:24;;;;;;;13.05;7.18;;;;;;;4.66;100.00;99396.53;5073965;28;20070;-80
2024/01/29 08:18:50;;;;;;;14.13;6.85;;;;;;;4.71;100.00;99410.59;5069190;28;20055;-80
2024/01/29 08:21:17;;;;;;;26.73;7.22;;;;;;;4.77;100.00;99405.25;5069411;28;20028;-81
2024/01/29 08:23:42;;;;;;;14.48;6.95;;;;;;;4.51;100.00;99395.78;5063918;28;20473;-80
2024/01/29 08:26:08;;;;;;;17.52;6.85;;;;;;;4.41;100.00;99408.22;5086407;28;20059;-80
2024/01/29 08:28:34;;;;;;;13.75;6.07;;;;;;;4.23;100.00;99403.94;5066976;28;20032;-80
2024/01/29 08:31:00;;;;;;;18.85;6.22;;;;;;;4.38;100.00;99411.75;5073954;28;20119;-79
2024/01/29 08:33:27;;;;;;;10.30;4.95;;;;;;;4.22;100.00;99414.53;5084051;28;20035;-81
2024/01/29 08:35:53;;;;;;;10.20;4.80;;;;;;;3.92;100.00;99420.88;5065908;28;20468;-80
2024/01/29 08:38:19;;;;;;;9.43;4.93;;;;;;;3.89;100.00;99431.50;5071269;28;20039;-81
2024/01/29 08:40:44;;;;;;;10.77;5.18;;;;;;;4.15;100.00;99424.28;5065144;28;20094;-83
2024/01/29 08:43:10;;;;;;;17.80;7.57;;;;;;;4.27;100.00;99428.63;5073588;28;20035;-84
2024/01/29 08:45:36;;;;;;;19.15;7.18;;;;;;;4.53;100.00;99431.97;5065384;28;20480;-84
2024/01/29 08:48:03;;;;;;;34.58;13.32;;;;;;;4.41;100.00;99437.34;5062737;28;20115;-84
2024/01/29 08:50:30;;;;;;;29.52;12.32;;;;;;;4.63;100.00;99436.31;5074161;28;20024;-82
2024/01/29 08:52:56;;;;;;;12.70;6.18;;;;;;;4.74;100.00;99430.91;5061215;28;20031;-84
2024/01/29 08:55:22;;;;;;;9.55;5.47;;;;;;;4.93;100.00;99425.44;5078383;28;20082;-83
2024/01/29 08:57:48;;;;;;;11.38;4.53;;;;;;;4.90;100.00;99417.50;5071350;28;20032;-83
2024/01/29 09:00:17;;;;;;;10.65;4.75;;;;;;;4.95;100.00;99428.09;5062782;28;20065;-84
2024/01/29 09:02:44;;;;;;;13.75;5.85;;;;;;;5.26;100.00;99429.50;5065239;28;20056;-82
2024/01/29 09:05:10;;;;;;;11.52;5.57;;;;;;;5.29;100.00;99402.09;5078547;28;20067;-81
2024/01/29 09:07:36;;;;;;;11.18;5.75;;;;;;;5.39;100.00;99428.50;5055849;28;20565;-81
2024/01/29 09:10:01;;;;;;;11.73;4.65;;;;;;;5.67;100.00;99417.53;5069377;28;20055;-81
2024/01/29 09:12:27;;;;;;;8.80;4.57;;;;;;;6.16;100.00;99408.06;5073472;28;20035;-82
2024/01/29 09:14:52;;;;;;;7.90;4.00;;;;;;;6.13;100.00;99393.94;5068023;28;20032;-80
2024/01/29 09:17:18;;;;;;;11.98;5.15;;;;;;;6.48;100.00;99403.16;5070548;28;20034;-81
2024/01/29 09:19:45;;;;;;;18.92;8.43;;;;;;;6.79;100.00;99405.28;5054364;28;20037;-82
2024/01/29 09:22:13;;;;;;;41.53;20.15;;;;;;;6.86;94.65;99386.53;5078317;28;20372;-81
2024/01/29 09:24:39;;;;;;;9.77;4.85;;;;;;;6.78;94.25;99388.47;5089982;28;20051;-82
2024/01/29 09:27:05;;;;;;;11.80;5.63;;;;;;;6.81;93.46;99383.09;5089188;28;20028;-81
2024/01/29 09:29:31;;;;;;;7.20;3.58;;;;;;;6.73;94.14;99390.31;5061208;28;20036;-82
2024/01/29 09:31:56;;;;;;;6.22;3.13;;;;;;;6.75;94.55;99385.84;5068946;28;20504;-82
2024/01/29 09:34:24;;;;;;;5.85;3.22;;;;;;;6.46;95.91;99373.03;5071419;28;20044;-79
2024/01/29 09:36:53;;;;;;;4.85;3.03;;;;;;;6.55;94.61;99382.66;5058598;28;20035;-82
2024/01/29 09:39:19;;;;;;;11.55;6.45;;;;;;;6.78;93.07;99382.25;5081209;28;20089;-80
2024/01/29 09:41:46;;;;;;;17.30;10.05;;;;;;;7.40;92.43;99378.44;5068392;28;20500;-81
2024/01/29 09:44:12;;;;;;;30.00;15.65;;;;;;;8.16;84.07;99364.34;5053943;28;20033;-81
2024/01/29 09:46:40;;;;;;;8.23;4.20;;;;;;;8.99;76.00;99354.28;5070856;28;20081;-82
2024/01/29 09:49:07;;;;;;;7.78;3.85;;;;;;;9.47;68.95;99332.47;5059474;28;20030;-80
2024/01/29 09:51:33;;;;;;;11.15;5.30;;;;;;;9.86;65.04;99341.97;5060825;28;20039;-82
2024/01/29 09:54:06;;;;;;;6.25;4.05;;;;;;;10.04;62.81;99325.38;5067276;28;20120;-81
2024/01/29 09:56:31;;;;;;;;;;;;;;;10.78;62.23;99332.78;5070260;28;20403;-82
2024/01/29 09:58:57;;;;;;;10.82;6.43;;;;;;;12.64;54.72;99308.69;5072528;28;19908;-82
2024/01/29 10:01:23;;;;;;;7.03;4.10;;;;;;;14.83;50.22;99298.41;5072461;28;20035;-81
2024/01/29 10:03:49;;;;;;;6.07;4.00;;;;;;;15.26;46.34;99259.28;5066990;28;20028;-80
2024/01/29 10:06:15;;;;;;;10.13;4.35;;;;;;;14.85;46.50;99280.34;5052747;28;20039;-81
2024/01/29 10:08:41;;;;;;;9.77;3.83;;;;;;;14.65;46.40;99286.75;5059957;28;20025;-82
2024/01/29 10:11:07;;;;;;;11.10;4.70;;;;;;;15.69;45.28;99274.94;5063235;28;20066;-81
2024/01/29 10:13:37;;;;;;;8.32;3.92;;;;;;;14.52;45.78;99280.22;5085634;28;20031;-82
2024/01/29 10:16:02;;;;;;;11.25;4.93;;;;;;;15.98;44.00;99267.91;5085294;28;20396;-80
2024/01/29 10:18:30;;;;;;;5.65;3.65;;;;;;;15.88;43.56;99261.28;5069924;28;20027;-82
2024/01/29 10:21:06;;;;;;;6.57;3.65;;;;;;;16.73;42.25;99254.53;5052910;28;20056;-80
2024/01/29 10:23:32;;;;;;;6.80;3.85;;;;;;;13.98;44.73;99273.00;5071430;28;20508;-81
2024/01/29 10:25:59;;;;;;;6.05;3.58;;;;;;;13.52;46.80;99285.06;5062423;28;20047;-81
2024/01/29 10:28:29;;;;;;;3.65;2.50;;;;;;;12.54;47.28;99280.47;5055806;28;20492;-80
2024/01/29 10:30:56;;;;;;;6.55;2.60;;;;;;;12.34;48.57;99287.53;5075700;28;20032;-80
2024/01/29 10:33:22;;;;;;;6.22;3.15;;;;;;;12.35;49.14;99291.97;5053681;28;20036;-80
2024/01/29 10:35:51;;;;;;;8.35;3.90;;;;;;;12.47;48.81;99283.41;5068786;28;20028;-80
2024/01/29 10:38:26;;;;;;;10.95;4.30;;;;;;;13.39;47.37;99278.50;5052671;28;20513;-79
2024/01/29 10:40:53;;;;;;;8.05;4.40;;;;;;;12.87;46.80;99274.53;5084471;28;20048;-80
2024/01/29 10:43:22;;;;;;;8.20;3.95;;;;;;;12.37;48.18;99279.34;5068046;28;20028;-80
2024/01/29 10:45:51;;;;;;;4.03;2.53;;;;;;;11.34;49.11;99267.38;5064359;28;21021;-80
2024/01/29 10:48:21;;;;;;;6.10;2.85;;;;;;;12.58;47.66;99271.38;5064068;28;20028;-80
2024/01/29 10:50:53;;;;;;;4.05;2.67;;;;;;;12.13;48.37;99266.94;5078606;28;20028;-83
2024/01/29 10:53:20;;;;;;;6.68;3.63;;;;;;;13.08;46.68;99259.31;5044952;28;20036;-80
2024/01/29 10:55:50;;;;;;;5.10;3.45;;;;;;;14.35;44.51;99239.81;5070904;28;20036;-80
2024/01/29 10:58:16;;;;;;;7.03;3.58;;;;;;;13.97;44.04;99249.72;5072659;28;20024;-81
2024/01/29 11:00:43;;;;;;;4.90;2.92;;;;;;;11.40;47.56;99261.78;5081029;28;20020;-82
2024/01/29 11:03:10;;;;;;;3.47;2.22;;;;;;;10.63;49.44;99269.06;5072117;28;20027;-81
2024/01/29 11:05:38;;;;;;;4.70;3.10;;;;;;;10.26;51.18;99275.66;5066446;28;20454;-81
2024/01/29 11:08:07;;;;;;;3.67;2.55;;;;;;;9.41;53.16;99269.44;5063356;28;20056;-81
2024/01/29 11:10:34;;;;;;;4.80;3.08;;;;;;;11.59;50.02;99267.31;5055898;28;20119;-81
2024/01/29 11:13:00;;;;;;;5.57;3.33;;;;;;;11.01;50.28;99257.91;5059104;28;20082;-80
2024/01/29 11:15:26;;;;;;;5.40;3.20;;;;;;;10.87;50.46;99255.69;5060357;28;20116;-80
2024/01/29 11:17:51;;;;;;;4.00;2.70;;;;;;;11.08;49.07;99246.00;5063753;28;20114;-83
2024/01/29 11:20:20;;;;;;;6.07;3.60;;;;;;;10.73;50.54;99243.75;5055905;28;20483;-82
2024/01/29 11:22:58;;;;;;;6.03;3.50;;;;;;;10.77;50.82;99234.66;5082288;28;20518;-82